• Join FlightAware (Why Join?)
  • Login
  • US Flag GB Flag 
06:48 EDT


 

Airport Tracker/Info


-or-


 

Live Flight TrackerFlight Track Log ✈ FSR411 ✈ 20-Aug-2013 ✈ KAUS - KCMI

Flight Track Log - Related Links

Times and Time Zones

All times are in EDT time to prevent confusion due to time zone crossing. See the FSR411 flight status page for this flight to view local times or setup timezone preferences in your user account.

Time Position Orientation Groundspeed Altitude Reporting Facility
EDT Latitude Longitude Course Direction KTS MPH feet Rate Location/Type
16:58 30.1339 -97.7161 326° Northwest 238 274 6,200  Level Houston Center
16:59 30.2031 -97.7547 334° Northwest 270 311 9,600 3,480 Climbing Houston Center
17:00 30.2814 -97.7847 342° North 289 333 13,400 3,540 Climbing Houston Center
17:01 30.3708 -97.8192 342° North 323 372 17,000 3,420 Climbing Houston Center
17:02 30.6660 -97.7328 330° Northwest  Level FlightAware Approximate
17:02 30.4672 -97.8578 341° North 352 405 20,500  Level Houston Center
17:03 30.7544 -97.8129 326° Northwest  Level FlightAware Approximate
17:03 30.5839 -97.9036 341° North 372 428 23,300  Level Houston Center
17:04 30.6953 -97.9447 342° North 402 463 25,400 1,980 Climbing Houston Center
17:05 30.8142 -97.9114 14° North 430 495 27,500 1,980 Climbing Houston Center
17:06 30.9322 -97.8703 17° North 434 499 29,500 1,920 Climbing Houston Center
17:07 31.0350 -97.8353 16° North 427 491 31,100 1,680 Climbing Fort Worth Center
17:08 31.1564 -97.7944 16° North 440 506 32,600 1,500 Climbing Fort Worth Center
17:09 31.2817 -97.7536 16° North 452 520 34,200 1,440 Climbing Fort Worth Center
17:10 31.4028 -97.7078 18° North 457 526 35,600 1,200 Climbing Fort Worth Center
17:11 31.5158 -97.6692 16° North 463 533 36,700 1,260 Climbing Fort Worth Center
17:12 31.6389 -97.6256 17° North 463 533 38,100 1,380 Climbing Fort Worth Center
17:13 31.7644 -97.5819 16° North 463 533 39,500 1,200 Climbing Fort Worth Center
17:14 31.8875 -97.5358 18° North 456 525 40,500 720 Climbing Fort Worth Center
17:15 32.0044 -97.4992 15° North 456 525 41,000 240 Climbing Fort Worth Center
17:16 32.1278 -97.4550 17° North 451 519 41,000  Level Fort Worth Center
17:17 32.2508 -97.4108 17° North 451 519 41,000  Level Fort Worth Center
17:18 32.3719 -97.3667 17° North 456 525 41,000  Level Fort Worth Center
17:19 32.4972 -97.3222 17° North 456 525 41,000  Level Fort Worth Center
17:20 32.6161 -97.2803 17° North 456 525 41,000  Level Fort Worth Center
17:21 32.7372 -97.2356 17° North 456 525 41,000  Level Fort Worth Center
17:22 32.8769 -97.1736 20° North 469 540 41,000  Level Fort Worth Center
17:23 32.9811 -97.0817 37° Northeast 471 542 41,000  Level Fort Worth Center
17:24 33.0706 -96.9819 43° Northeast 466 536 41,000  Level Fort Worth Center
17:25 33.1661 -96.8775 42° Northeast 472 543 41,000  Level Fort Worth Center
17:26 33.2617 -96.7725 43° Northeast 467 537 41,000  Level Fort Worth Center
17:27 33.3592 -96.6647 43° Northeast 467 537 41,000  Level Fort Worth Center
17:28 33.4547 -96.5594 43° Northeast 467 537 41,000  Level Fort Worth Center
17:29 33.5519 -96.4514 43° Northeast 467 537 41,000  Level Fort Worth Center
17:30 33.6492 -96.3431 43° Northeast 467 537 41,000  Level Fort Worth Center
17:31 33.7464 -96.2344 43° Northeast 467 537 41,000  Level Fort Worth Center
17:32 33.8411 -96.1256 44° Northeast 467 537 41,000  Level Fort Worth Center
17:33 33.9403 -96.0164 42° Northeast 467 537 41,000  Level Fort Worth Center
17:34 34.0392 -95.9072 42° Northeast 472 543 41,000  Level Fort Worth Center
17:35 34.1297 -95.8003 44° Northeast 466 536 41,000  Level Fort Worth Center
17:36 34.2283 -95.6878 43° Northeast 473 544 41,000  Level Fort Worth Center
17:37 34.3372 -95.5650 43° Northeast 480 552 41,000  Level Fort Worth Center
17:38 34.4356 -95.4519 43° Northeast 480 552 41,000  Level Fort Worth Center
17:39 34.5319 -95.3414 43° Northeast 480 552 41,000  Level Fort Worth Center
17:41 34.6783 -95.1806 42° Northeast 480 552 41,000  Level Memphis Center
17:42 34.7811 -95.0575 45° Northeast 480 552 41,000  Level Memphis Center
17:43 34.8750 -94.9489 43° Northeast 474 545 41,000  Level Memphis Center
17:44 34.9686 -94.8372 44° Northeast 468 539 41,000  Level Memphis Center
17:45 35.0600 -94.7331 43° Northeast 462 532 41,000  Level Memphis Center
17:46 35.1539 -94.6108 47° Northeast 468 539 41,000  Level Memphis Center
17:47 35.2472 -94.5039 43° Northeast 467 537 41,000  Level Memphis Center
17:48 35.3406 -94.3964 43° Northeast 457 526 41,000  Level Memphis Center
17:49 35.4336 -94.2889 43° Northeast 452 520 41,000  Level Memphis Center
17:50 35.5247 -94.1783 45° Northeast 452 520 41,000  Level Memphis Center
17:51 35.6156 -94.0675 45° Northeast 452 520 41,000  Level Memphis Center
17:52 35.7064 -93.9592 44° Northeast 452 520 41,000  Level Memphis Center
17:53 35.7992 -93.8506 44° Northeast 452 520 41,000  Level Memphis Center
17:54 35.8875 -93.7417 45° Northeast 446 513 41,000  Level Memphis Center
17:55 35.9803 -93.6325 44° Northeast 451 519 41,000  Level Memphis Center
17:56 36.0706 -93.5206 45° Northeast 451 519 41,000  Level Memphis Center
17:57 36.1611 -93.4083 45° Northeast 451 519 41,000  Level Memphis Center
17:58 36.2533 -93.2986 44° Northeast 451 519 41,000  Level Memphis Center
18:00 36.4528 -93.0511 45° Northeast 462 532 41,000  Level Kansas City Center
18:01 36.5444 -92.9369 45° Northeast 464 534 41,000  Level Kansas City Center
18:02 36.6322 -92.8283 45° Northeast 462 532 41,000  Level Kansas City Center
18:03 36.7236 -92.7136 45° Northeast 464 534 41,000  Level Kansas City Center
18:04 36.8342 -92.5756 45° Northeast 466 536 41,000  Level Kansas City Center
18:05 36.9244 -92.4597 46° Northeast 467 537 41,000  Level Kansas City Center
18:06 37.0172 -92.3444 45° Northeast 468 539 41,000  Level Kansas City Center
18:07 37.1089 -92.2303 45° Northeast 467 537 41,000  Level Kansas City Center
18:08 37.2003 -92.1128 46° Northeast 469 540 41,000  Level Kansas City Center
18:09 37.3100 -91.9725 45° Northeast 471 542 41,000  Level Kansas City Center
18:10 37.4019 -91.8564 45° Northeast 470 541 41,000  Level Kansas City Center
18:11 37.4925 -91.7397 46° Northeast 469 540 41,000  Level Kansas City Center
18:12 37.5831 -91.6239 45° Northeast 467 537 41,000  Level Kansas City Center
18:13 37.6744 -91.5067 45° Northeast 469 540 41,000  Level Kansas City Center
18:14 37.7658 -91.3897 45° Northeast 470 541 41,000  Level Kansas City Center
18:15 37.8742 -91.2478 46° Northeast 469 540 41,000  Level Kansas City Center
18:16 37.9644 -91.1306 46° Northeast 467 537 41,000  Level Kansas City Center
18:17 38.0514 -91.0147 46° Northeast 469 540 41,000  Level Kansas City Center
18:18 38.1403 -90.8958 46° Northeast 468 539 41,000  Level Kansas City Center
18:19 38.2314 -90.7764 46° Northeast 470 541 41,000  Level Kansas City Center
18:20 38.3378 -90.6322 47° Northeast 469 540 41,000 -60 Level Kansas City Center
18:21 38.4308 -90.5061 47° Northeast 468 539 40,900 -540 Descending Kansas City Center
18:22 38.5178 -90.3872 47° Northeast 461 531 40,000 -900 Descending Kansas City Center
18:23 38.5989 -90.2756 47° Northeast 465 535 39,100 -1,080 Descending Kansas City Center
18:24 38.7011 -90.1517 43° Northeast 469 540 37,800 -1,800 Descending Kansas City Center
18:26 38.7847 -90.0342 48° Northeast 450 518 35,500 -2,400 Descending Kansas City Center
18:27 38.8750 -89.9078 47° Northeast 451 519 32,800 -2,640 Descending Kansas City Center
18:28 38.9706 -89.7792 46° Northeast 451 519 30,100 -2,520 Descending Kansas City Center
18:29 39.0594 -89.6575 47° Northeast 463 533 27,600 -2,580 Descending Kansas City Center
18:30 39.1547 -89.5253 47° Northeast 468 539 24,800 -2,160 Descending Kansas City Center
18:31 39.2422 -89.4033 47° Northeast 466 536 23,100 -960 Descending Kansas City Center
18:32 39.3242 -89.2886 47° Northeast 453 521 22,900 -1,020 Descending Kansas City Center
18:33 39.4067 -89.1739 47° Northeast 443 510 21,100 -2,280 Descending Kansas City Center
18:34 39.4864 -89.0603 48° Northeast 435 501 18,200 -2,760 Descending Kansas City Center
18:35 39.5625 -88.9544 47° Northeast 424 488 15,500 -2,640 Descending Kansas City Center
18:36 39.6350 -88.8517 47° Northeast 410 472 12,700 -2,400 Descending Kansas City Center
18:37 39.7206 -88.7497 42° Northeast 382 440 10,500 -1,860 Descending Kansas City Center
18:38 39.7939 -88.6814 36° Northeast 349 402 9,000 -1,740 Descending Kansas City Center
18:39 39.8583 -88.6208 36° Northeast 319 367 7,000 -1,920 Descending Kansas City Center
18:40 39.9231 -88.5592 36° Northeast 303 349 5,000 -1,620 Descending Kansas City Center
18:41 39.9850 -88.5003 36° Northeast 292 336 3,600 -1,080 Descending Kansas City Center
18:42 40.0464 -88.4358 39° Northeast 282 325 2,800 -840 Descending Kansas City Center
18:44 40.0388 -88.2778 49° Northeast  Level Estimated
18:51 40.0388 -88.2778 49° Northeast  Level Estimated
18:52 40.0388 -88.2778 49° Northeast  Level Estimated
18:53 40.0388 -88.2778 49° Northeast  Level Estimated
18:54 40.0388 -88.2778 49° Northeast  Level Estimated